EDRK1: El Dorado Lake

Data processed at Thu May 23 2019 23:50


All information presented herein is the property of the government of the United States of America and may be revised or deleted at any time without prior notice.
Dissemination of this information without the expressed written consent of the Public Affairs Office, Tulsa District U.S. Army Corps of Engineers is strictly prohibited.
These data are gathered electronically and, as presented, have not undergone any form of quality control. These data are not guaranteed to be valid or correct.
Go to home page.
Go to station list.
Go to home page.

Upstream stations:

Downstream station:
Previous Day
Next Day
Current Day
    
SHEF ID:       EDRK1     El Dorado Lake
STATION TYPE:  RESERVOIR
Flood Pool:  Bottom =  1339.00, Top =  1347.50

               PRECIP ELEVATION   STORAGE    INFLOW   RELEASE  AIR-TEMP  WIND-DIRWIND-SPEED REL-HUMID SOLAR-RAD   VOLTAGE  BAT-LOAD
                   in        ft     ac-ft       cfs       cfs         F       deg       mph         %      W/m2      volt      volt
              Ccp-Rev   Ccp-Rev   Ccp-Rev  Rev-Regi  Rev-Regi   Ccp-Rev   Ccp-Rev   Ccp-Rev   Ccp-Rev   Ccp-Rev   Ccp-Rev   Ccp-Rev
(US/Central)
05/23 00:00      0.00   1347.41    239620      1969        11     65.30     40.60      6.50     72.73      0.00     13.74     13.05
05/23 01:00      0.00   1347.42    239735      2248        11     65.01     65.70      8.00     74.14      0.00     13.74     13.05
05/23 02:00      0.00   1347.44    239967      1969        11     64.24     71.80     10.50     75.31      0.00     13.74     12.97
05/23 03:00      0.00   1347.45    240082      1969        11     64.02     72.60     10.10     77.55      0.00     13.74     13.05
05/23 04:00      0.00   1347.47    240313      1969        11     63.70     41.00      5.70     78.00      0.00     13.74     12.97
05/23 05:00      0.00   1347.48    240429      1969        11     63.32     63.70      7.30     77.91      0.00     13.74     13.05
05/23 06:00      0.00   1347.49    240544      1969        11     63.59     72.10     10.60     75.19      0.00     13.74     12.97
05/23 07:00      0.00   1347.51    240776      2127        11     63.41     57.90      9.40     74.86      0.00     13.74     12.97
05/23 08:00      0.00   1347.52    240891      2286       804     63.37     46.10      6.50     74.78     15.50     13.74     12.97
05/23 09:00      0.00   1347.54    241122      2471       804     64.80     72.90     15.10     69.79     61.50     13.74     12.97
05/23 10:00      0.00   1347.55    241238      2174       804     66.24     73.80     16.60     65.28    138.70     13.74     12.97
05/23 11:00      0.00   1347.56    241353      1917      1327     66.78     78.10     17.50     66.16    156.90     13.74     12.97
05/23 12:00      0.00   1347.56    241353      1618      1327     66.40     82.80     15.30     75.88    146.10     13.74     12.97
05/23 13:00      0.00   1347.55    241238      1599      2107     67.28     90.50     16.40     83.37    210.10     13.74     13.05
05/23 14:00      0.00   1347.55    241238      1274      2107     68.18     89.40     15.20     90.61    255.30     13.74     12.97
05/23 15:00      0.00   1347.55    241238      1430      2107     69.10     90.50     13.80     93.45    231.60     13.75     12.97
05/23 16:00      0.00   1347.54    241122      1827      2106     70.34     86.80     10.90     93.76    220.30     13.75     13.05
05/23 17:00      0.00   1347.54    241122      1547      2106     71.73     87.70     10.30     93.76    301.10     13.75     12.73
05/23 18:00      0.00   1347.54    241122      1267      2106     73.71     98.30     12.50     93.08    179.90     13.75     12.97
05/23 19:00      0.00   1347.53    241007      1267      2106     73.99    103.00     10.10     93.92     65.10     13.75     12.97
05/23 20:00      0.00   1347.52    240891       987      2106     78.37    123.20     10.60     82.89      2.80     13.75     12.97
05/23 21:00      0.00   1347.51    240776       987      2106     78.69    136.40     13.20     80.17      0.00     13.75     12.97
05/23 22:00      0.00   1347.50    240660       987      2106     77.65    141.60     14.50     79.79      0.00     13.75     13.05
05/23 23:00      0.00   1347.50    240660      1546      2106     77.27    149.30     13.70     79.29      0.00     13.75     12.97